• Join FlightAware (Why Join?)
  • Login
  • US Flag 
01:43AM EDT


 

Airport Tracker/Info


-or-


 

Live Flight TrackerFlight Track Log ✈ ASQ5398 ✈ 16-May-2013 ✈ KATL - KEWN

Flight Track Log - Related Links

Times and Time Zones

All times are in EDT time to prevent confusion due to time zone crossing. See the ASQ5398 flight status page for this flight to view local times or setup timezone preferences in your user account.

Time Position Orientation Groundspeed Altitude Reporting Facility
EDT Latitude Longitude Course Direction KTS MPH feet Rate Location/Type
03:16PM 33.6328 -84.4778 229° Southwest 385 443 2,600  Level Atlanta Center
03:16PM 33.6167 -84.5000 229° Southwest 194 223 2,900 1,800 Climbing Atlanta TRACON
03:17PM 33.5833 -84.5667 239° Southwest 268 308 5,000 2,460 Climbing Atlanta TRACON
03:18PM 33.5167 -84.5833 192° South 262 302 7,900 2,040 Climbing Atlanta TRACON
03:20PM 33.4553 -84.4744 124° Southeast 312 359 10,500 1,440 Climbing Atlanta Center
03:21PM 33.4558 -84.3550 90° East 344 396 11,900 1,500 Climbing Atlanta Center
03:22PM 33.4642 -84.2356 85° East 356 410 13,600 1,500 Climbing Atlanta Center
03:23PM 33.4811 -84.1086 81° East 372 428 15,000 1,380 Climbing Atlanta Center
03:24PM 33.5000 -83.9764 80° East 392 451 16,400 1,380 Climbing Atlanta Center
03:25PM 33.5206 -83.8369 80° East 392 451 17,800 1,200 Climbing Atlanta Center
03:26PM 33.5369 -83.7025 82° East 392 451 18,900 1,200 Climbing Atlanta Center
03:27PM 33.5553 -83.5678 81° East 405 466 20,200 1,020 Climbing Atlanta Center
03:28PM 33.5714 -83.4306 82° East 412 474 21,000 360 Climbing Atlanta Center
03:29PM 33.5875 -83.2883 82° East 420 483 21,000 480 Level Atlanta Center
03:30PM 33.6053 -83.1358 82° East 444 511 22,000 960 Climbing Atlanta Center
03:31PM 33.6206 -82.9911 83° East 444 511 23,000 780 Climbing Atlanta Center
03:32PM 33.6339 -82.8436 84° East 444 511 23,600 540 Climbing Atlanta Center
03:34PM 33.6608 -82.5856 83° East 456 525 24,500 480 Climbing Jacksonville Center
03:35PM 33.6792 -82.4283 82° East 467 537 25,000 420 Climbing Jacksonville Center
03:36PM 33.6950 -82.2686 83° East 474 545 25,400 420 Climbing Jacksonville Center
03:37PM 33.7172 -82.1111 80° East 474 545 25,900 480 Climbing Jacksonville Center
03:38PM 33.7517 -81.9608 75° East 474 545 26,400 480 Climbing Jacksonville Center
03:39PM 33.7817 -81.8206 76° East 474 545 26,900 300 Climbing Jacksonville Center
03:40PM 33.8158 -81.6703 75° East 474 545 27,000  Climbing Jacksonville Center
03:41PM 33.8478 -81.5172 76° East 469 540 27,000  Level Jacksonville Center
03:42PM 33.8814 -81.3667 75° East 469 540 27,000  Level Jacksonville Center
03:43PM 33.9131 -81.2183 76° East 469 540 27,000  Level Jacksonville Center
03:44PM 33.9464 -81.0675 75° East 463 533 27,000  Level Jacksonville Center
03:45PM 33.9794 -80.9042 76° East 453 521 27,000 -360 Level Jacksonville Center
03:46PM 34.0103 -80.7531 76° East 458 527 26,300 -720 Descending Jacksonville Center
03:47PM 34.0431 -80.5994 76° East 458 527 25,600 -720 Descending Jacksonville Center
03:48PM 34.0756 -80.4381 76° East 472 543 24,900 -720 Descending Jacksonville Center
03:49PM 34.1097 -80.2792 75° East 482 555 24,200 -720 Descending Jacksonville Center
03:50PM 34.1417 -80.1125 77° East 489 563 23,500 -600 Descending Jacksonville Center
03:51PM 34.1736 -79.9558 76° East 489 563 23,000 -300 Descending Jacksonville Center
03:52PM 34.2053 -79.7967 76° East 484 557 23,000  Level Jacksonville Center
03:53PM 34.2392 -79.6472 75° East 476 548 23,000  Level Jacksonville Center
03:54PM 34.2775 -79.5203 70° East 462 532 23,000  Level Jacksonville Center
03:56PM 34.3614 -79.2700 68° East 464 534 23,000  Level Washington Center
03:57PM 34.4072 -79.1336 68° East 459 528 23,000  Level Washington Center
03:58PM 34.4556 -78.9844 69° East 441 507 23,000  Level Washington Center
03:59PM 34.5011 -78.8453 68° East 435 501 23,000 -60 Level Washington Center
04:00PM 34.5467 -78.7033 69° East 439 505 22,900 -780 Descending Washington Center
04:01PM 34.5872 -78.5814 68° East 444 511 21,500 -1,500 Descending Washington Center
04:02PM 34.6369 -78.4292 68° East 444 511 19,900 -1,620 Descending Washington Center
04:03PM 34.6794 -78.2994 68° East 427 491 18,400 -1,560 Descending Washington Center
04:04PM 34.7200 -78.1719 69° East 412 474 16,900 -1,680 Descending Washington Center
04:05PM 34.7578 -78.0544 69° East 391 450 15,100 -1,920 Descending Washington Center
04:06PM 34.7956 -77.9392 68° East 378 435 13,100 -1,800 Descending Washington Center
04:07PM 34.8269 -77.8286 71° East 366 421 11,500 -1,080 Descending Washington Center
04:08PM 34.8622 -77.7208 68° East 360 414 11,000 -1,080 Descending Washington Center
04:09PM 34.8933 -77.6178 70° East 347 399 9,400 -1,680 Descending Washington Center
04:10PM 34.9261 -77.5172 68° East 325 374 7,700 -1,740 Descending Washington Center
04:11PM 34.9592 -77.4167 68° East 318 366 6,000 -1,500 Descending Washington Center
04:12PM 34.9856 -77.3261 70° East 303 349 4,800 -1,200 Descending Washington Center
04:13PM 35.0139 -77.2378 69° East 289 333 3,600 -1,200 Descending Washington Center
04:14PM 35.0628 -77.1653 51° Northeast 276 318 2,400 -900 Descending Washington Center
04:15PM 35.1097 -77.0950 51° Northeast 265 305 1,900 -420 Descending Washington Center
04:16PM 35.1542 -77.0425 44° Northeast 228 262 1,600 -300 Descending Washington Center